Lynn Grove, Kentucky
Current Conditions -  °F | °C
As of 12:35 AM on Wednesday 28 Jan 2015 (Local Time) from KCEY Reporting Station
Clear Clear  
Wind Chill: 22°   Ceiling: Unl
Heat Index: 28°   Visibility: 10mi
Dew Point: 27°   Wind: 6mph
Humidity: 93%   Direction: 70°ENE
Pressure: 30.24"   Gusts: NA
Location:  36.618°N, 88.2562°W
Report Text: KCEY 280635Z AUTO 07005KT 10SM CLR M02/M03 A3024 RMK AO1
Loading
Personal Weather Stations






























Interactive Weather Map New forecast layout! Learn more

10-Day Weather Forecast

Advertisements
Track Severe Weather on mobile